createdAt,value
2022-12-24T00:00:47.130Z,1.20
2022-12-24T00:05:48.762Z,1.20
2022-12-24T00:10:52.180Z,1.20
2022-12-24T00:15:53.807Z,1.20
2022-12-24T00:20:55.469Z,1.30
2022-12-24T00:25:57.072Z,1.13
2022-12-24T00:30:59.849Z,1.20
2022-12-24T00:36:01.562Z,1.17
2022-12-24T00:41:05.704Z,1.20
2022-12-24T00:46:07.347Z,1.20
2022-12-24T00:51:09.004Z,1.30
2022-12-24T00:56:10.650Z,1.27
2022-12-24T01:01:12.681Z,1.38
2022-12-24T01:06:18.264Z,1.15
2022-12-24T01:11:19.959Z,1.48
2022-12-24T01:16:21.820Z,1.50
2022-12-24T01:21:23.570Z,1.67
2022-12-24T01:26:25.225Z,2.17
2022-12-24T01:31:26.929Z,1.40
2022-12-24T01:36:28.588Z,1.65
2022-12-24T01:41:50.169Z,2.08
2022-12-24T01:47:04.802Z,1.70
2022-12-24T01:52:09.664Z,1.67
2022-12-24T01:57:18.427Z,2.00
2022-12-24T02:02:20.551Z,2.03
2022-12-24T02:07:23.084Z,1.73
2022-12-24T02:12:26.469Z,1.70
2022-12-24T02:17:43.372Z,1.50
2022-12-24T02:22:50.723Z,1.80
2022-12-24T02:27:58.272Z,1.80
2022-12-24T02:33:02.668Z,1.60
2022-12-24T02:38:07.587Z,1.77
2022-12-24T02:43:20.282Z,1.75
2022-12-24T02:48:23.729Z,1.70
2022-12-24T02:53:25.412Z,1.58
2022-12-24T02:58:42.128Z,1.30
2022-12-24T03:03:46.670Z,1.63
2022-12-24T03:08:55.094Z,1.80
2022-12-24T03:13:58.853Z,1.52
2022-12-24T03:19:01.098Z,1.67
2022-12-24T03:24:02.883Z,1.45
2022-12-24T03:29:09.100Z,1.27
2022-12-24T03:34:11.782Z,1.30
2022-12-24T03:39:13.568Z,1.52
2022-12-24T03:44:15.281Z,1.20
2022-12-24T03:49:16.934Z,1.40
2022-12-24T03:54:18.557Z,1.20
2022-12-24T03:59:20.195Z,1.45
2022-12-24T04:04:21.799Z,1.40
2022-12-24T04:09:23.443Z,1.33
2022-12-24T04:14:25.280Z,1.40
2022-12-24T04:19:26.969Z,1.40
2022-12-24T04:24:28.638Z,1.33
2022-12-24T04:29:30.267Z,1.50
2022-12-24T04:34:31.999Z,1.20
2022-12-24T04:39:33.643Z,1.27
2022-12-24T04:44:35.266Z,1.52
2022-12-24T04:49:36.835Z,1.35
2022-12-24T04:54:38.476Z,1.42
2022-12-24T04:59:40.114Z,1.50
2022-12-24T05:04:41.857Z,1.55
2022-12-24T05:09:43.438Z,1.60
2022-12-24T05:14:45.075Z,1.60
2022-12-24T05:19:46.699Z,1.52
2022-12-24T05:25:06.572Z,1.60
2022-12-24T05:30:08.934Z,1.50
2022-12-24T05:35:10.611Z,2.08
2022-12-24T05:40:12.303Z,1.23
2022-12-24T05:45:13.970Z,1.85
2022-12-24T05:50:15.617Z,1.83
2022-12-24T05:55:17.283Z,1.52
2022-12-24T06:00:19.332Z,1.67
2022-12-24T06:05:21.153Z,1.52
2022-12-24T06:10:23.275Z,2.00
2022-12-24T06:15:24.943Z,1.60
2022-12-24T06:20:26.572Z,1.98
2022-12-24T06:25:28.229Z,1.83
2022-12-24T06:30:29.812Z,1.77
2022-12-24T06:35:32.437Z,1.40
2022-12-24T06:40:34.040Z,2.00
2022-12-24T06:45:35.665Z,1.48
2022-12-24T06:50:37.271Z,1.70
2022-12-24T06:55:39.808Z,1.45
2022-12-24T07:00:41.446Z,1.70
2022-12-24T07:05:43.107Z,1.88
2022-12-24T07:10:49.067Z,1.92
2022-12-24T07:16:03.385Z,1.73
2022-12-24T07:21:05.623Z,2.22
2022-12-24T07:26:07.527Z,1.98
2022-12-24T07:31:09.250Z,1.60
2022-12-24T07:36:16.095Z,1.80
2022-12-24T07:41:17.689Z,1.95
2022-12-24T07:46:19.357Z,2.45
2022-12-24T07:51:21.054Z,2.13
2022-12-24T07:56:22.782Z,1.73
2022-12-24T08:01:24.479Z,1.92
2022-12-24T08:06:26.219Z,1.80
2022-12-24T08:11:27.826Z,1.88
2022-12-24T08:16:29.529Z,1.85
2022-12-24T08:21:31.195Z,1.50
2022-12-24T08:26:32.831Z,1.55
2022-12-24T08:31:37.545Z,1.75
2022-12-24T08:36:39.250Z,1.90
2022-12-24T08:41:40.867Z,1.90
2022-12-24T08:46:42.635Z,1.65
2022-12-24T08:51:44.310Z,1.88
2022-12-24T08:56:45.936Z,2.33
2022-12-24T09:01:47.840Z,2.42
2022-12-24T09:06:49.687Z,2.17
2022-12-24T09:11:51.416Z,1.90
2022-12-24T09:16:53.094Z,2.33
2022-12-24T09:21:55.194Z,2.30
2022-12-24T09:26:58.307Z,2.30
2022-12-24T09:32:00.072Z,1.80
2022-12-24T09:37:03.105Z,2.05
2022-12-24T09:42:28.560Z,2.17
2022-12-24T09:47:40.111Z,2.22
2022-12-24T09:52:44.163Z,2.15
2022-12-24T09:57:47.712Z,2.05
2022-12-24T10:02:50.028Z,2.22
2022-12-24T10:08:09.722Z,2.40
2022-12-24T10:13:20.504Z,2.22
2022-12-24T10:18:34.920Z,2.38
2022-12-24T10:23:54.875Z,2.30
2022-12-24T10:28:57.300Z,2.67
2022-12-24T10:34:03.545Z,2.40
2022-12-24T10:39:05.248Z,2.25
2022-12-24T10:44:12.132Z,2.42
2022-12-24T10:49:20.179Z,2.03
2022-12-24T10:54:27.701Z,3.00
2022-12-24T10:59:30.972Z,2.40
2022-12-24T11:04:33.260Z,2.10
2022-12-24T11:09:37.956Z,2.05
2022-12-24T11:14:40.143Z,2.95
2022-12-24T11:19:48.793Z,2.00
2022-12-24T11:25:19.221Z,2.08
2022-12-24T11:30:31.769Z,2.78
2022-12-24T11:35:34.554Z,2.17
2022-12-24T11:40:42.501Z,2.00
2022-12-24T11:45:55.831Z,1.63
2022-12-24T11:51:01.307Z,1.83
2022-12-24T11:56:07.251Z,1.98
2022-12-24T12:01:25.120Z,1.85
2022-12-24T12:06:46.885Z,1.55
2022-12-24T12:11:52.835Z,1.55
2022-12-24T12:17:12.947Z,1.75
2022-12-24T12:23:02.732Z,2.15
2022-12-24T12:28:16.487Z,1.50
2022-12-24T12:33:31.650Z,1.63
2022-12-24T12:38:33.288Z,1.77
2022-12-24T12:44:02.296Z,1.73
2022-12-24T12:49:28.236Z,1.70
2022-12-24T12:54:43.938Z,1.83
2022-12-24T13:00:06.552Z,2.80
2022-12-24T13:05:25.745Z,1.92
2022-12-24T13:10:52.118Z,1.65
2022-12-24T13:16:09.010Z,1.63
2022-12-24T13:21:18.867Z,1.67
2022-12-24T13:26:20.580Z,1.83
2022-12-24T13:31:24.656Z,1.80
2022-12-24T13:37:03.942Z,1.50
2022-12-24T13:42:06.932Z,1.50
2022-12-24T13:47:14.546Z,1.92
2022-12-24T13:52:19.773Z,1.85
2022-12-24T13:57:40.049Z,1.80
2022-12-24T14:02:55.623Z,1.67
2022-12-24T14:07:58.859Z,2.15
2022-12-24T14:13:00.708Z,2.10
2022-12-24T14:18:02.490Z,1.70
2022-12-24T14:23:06.459Z,1.80
2022-12-24T14:28:17.347Z,1.55
2022-12-24T14:33:30.016Z,1.60
2022-12-24T14:38:32.443Z,1.85
2022-12-24T14:44:07.160Z,1.85
2022-12-24T14:49:38.425Z,1.80
2022-12-24T14:54:44.280Z,1.88
2022-12-24T14:59:50.710Z,1.60
2022-12-24T15:05:16.972Z,1.50
2022-12-24T15:10:31.459Z,1.75
2022-12-24T15:15:34.226Z,1.77
2022-12-24T15:20:36.477Z,1.58
2022-12-24T15:25:38.181Z,1.60
2022-12-24T15:30:40.282Z,1.65
2022-12-24T15:35:55.736Z,2.08
2022-12-24T15:40:58.263Z,1.70
2022-12-24T15:46:00.501Z,2.28
2022-12-24T15:51:03.106Z,2.15
2022-12-24T15:56:09.179Z,1.90
2022-12-24T16:01:13.898Z,1.73
2022-12-24T16:06:16.024Z,2.15
2022-12-24T16:11:19.575Z,2.60
2022-12-24T16:16:35.696Z,1.70
2022-12-24T16:21:41.510Z,1.80
2022-12-24T16:26:43.177Z,1.88
2022-12-24T16:31:53.240Z,2.45
2022-12-24T16:36:55.821Z,3.50
2022-12-24T16:42:18.131Z,3.42
2022-12-24T16:47:22.832Z,2.95
2022-12-24T16:52:28.503Z,3.10
2022-12-24T16:57:33.822Z,1.90
2022-12-24T17:02:35.702Z,1.75
2022-12-24T17:07:43.160Z,1.88
2022-12-24T17:12:45.663Z,5.35
2022-12-24T17:17:47.401Z,3.60
2022-12-24T17:22:49.553Z,3.40
2022-12-24T17:27:51.153Z,2.65
2022-12-24T17:32:52.761Z,2.85
2022-12-24T17:37:54.371Z,2.78
2022-12-24T17:42:56.014Z,3.20
2022-12-24T17:47:57.701Z,2.65
2022-12-24T17:52:59.437Z,3.38
2022-12-24T17:58:01.306Z,3.85
2022-12-24T18:03:03.074Z,4.05
2022-12-24T18:08:04.938Z,3.45
2022-12-24T18:13:07.177Z,3.17
2022-12-24T18:18:10.213Z,2.83
2022-12-24T18:23:12.078Z,3.10
2022-12-24T18:28:13.864Z,3.10
2022-12-24T18:33:15.608Z,3.22
2022-12-24T18:38:17.286Z,2.90
2022-12-24T18:43:19.325Z,2.50
2022-12-24T18:48:20.989Z,3.17
2022-12-24T18:53:22.835Z,5.28
2022-12-24T18:58:24.540Z,4.68
2022-12-24T19:03:26.198Z,2.75
2022-12-24T19:08:56.552Z,3.10
2022-12-24T19:13:49.891Z,3.03
2022-12-24T19:18:51.642Z,2.47
2022-12-24T19:23:53.260Z,2.65
2022-12-24T19:28:54.953Z,2.95
2022-12-24T19:33:57.011Z,2.70
2022-12-24T19:38:58.843Z,2.65
2022-12-24T19:44:01.612Z,2.80
2022-12-24T19:49:06.519Z,2.75
2022-12-24T19:54:14.883Z,2.90
2022-12-24T19:59:20.161Z,2.72
2022-12-24T20:04:22.164Z,2.78
2022-12-24T20:09:23.806Z,2.30
2022-12-24T20:14:25.409Z,2.28
2022-12-24T20:19:26.981Z,2.50
2022-12-24T20:24:28.695Z,2.05
2022-12-24T20:29:30.355Z,2.63
2022-12-24T20:34:32.013Z,2.50
2022-12-24T20:39:33.724Z,2.20
2022-12-24T20:44:35.319Z,2.70
2022-12-24T20:49:36.958Z,2.33
2022-12-24T20:54:38.549Z,2.72
2022-12-24T20:59:42.068Z,2.30
2022-12-24T21:04:45.136Z,2.58
2022-12-24T21:09:46.772Z,2.30
2022-12-24T21:14:48.416Z,2.53
2022-12-24T21:19:50.070Z,2.65
2022-12-24T21:24:53.972Z,2.53
2022-12-24T21:29:56.127Z,2.38
2022-12-24T21:34:57.716Z,2.90
2022-12-24T21:39:59.345Z,2.53
2022-12-24T21:45:02.097Z,2.25
2022-12-24T21:50:26.830Z,3.05
2022-12-24T21:55:33.345Z,2.90
2022-12-24T22:00:35.394Z,2.88
2022-12-24T22:05:37.048Z,2.88
2022-12-24T22:10:57.665Z,2.97
2022-12-24T22:15:59.357Z,2.83
2022-12-24T22:21:02.461Z,3.22
2022-12-24T22:26:14.591Z,3.38
2022-12-24T22:31:21.651Z,3.45
2022-12-24T22:36:23.457Z,3.88
2022-12-24T22:41:25.246Z,3.97
2022-12-24T22:46:26.875Z,4.05
2022-12-24T22:51:28.499Z,3.83
2022-12-24T22:56:32.028Z,3.17
2022-12-24T23:01:39.546Z,3.47
2022-12-24T23:06:41.607Z,3.10
2022-12-24T23:11:44.141Z,3.72
2022-12-24T23:16:45.751Z,3.50
2022-12-24T23:21:47.482Z,3.20
2022-12-24T23:26:50.170Z,3.00
2022-12-24T23:31:51.940Z,3.40
2022-12-24T23:36:53.608Z,3.33
2022-12-24T23:41:55.318Z,3.83
2022-12-24T23:46:56.959Z,3.58
2022-12-24T23:51:58.604Z,4.13
2022-12-24T23:57:00.290Z,3.80
